Mount Nebo, West Virginia
Current Conditions -  °F | °C
As of 12:51 PM on Thursday 18 Dec 2014 (Local Time) from KBKW Reporting Station
Clear Clear  
Wind Chill: 28°   Ceiling: Unl
Heat Index: 33°   Visibility: 10mi
Dew Point: 21°   Wind: 6mph
Humidity: 61%   Direction: 260°W
Pressure: 30.1"   Gusts: NA
Location:  38.2°N, 80.86°W
Report Text: KBKW 181751Z AUTO 26005KT 10SM CLR 01/M06 A3010 RMK AO2 SLP220 T00061061 10017 21033 58021
Loading
Personal Weather Stations






























Interactive Weather Map New forecast layout! Learn more

10-Day Weather Forecast

Advertisements
Track Severe Weather on mobile